Time;durP1;ratioP1;P1;durP2;ratioP2;P2;SDS_P1;SDS_P2;PMS_P1;PMS_P2;Temp;Humidity;BMP_temperature;BMP_pressure;BME280_temperature;BME280_humidity;BME280_pressure;Samples;Min_cycle;Max_cycle;Signal;HPM_P1;HPM_P2
2023/10/03 00:00:32;;;;;;;17.27;9.90;;;16.50;99.90;;;-141.84;76.25;20604.50;5023151;28;20265;-65
2023/10/03 00:03:03;;;;;;;12.88;8.55;;;16.40;99.90;;;-141.84;76.55;20671.59;5023665;28;20233;-66
2023/10/03 00:05:32;;;;;;;18.38;9.75;;;16.40;99.90;;;-141.84;77.17;20614.66;5023942;28;20201;-66
2023/10/03 00:08:04;;;;;;;15.27;10.35;;;16.30;99.90;;;-141.84;76.98;20624.84;5015919;28;20661;-66
2023/10/03 00:10:38;;;;;;;16.48;10.52;;;16.30;99.90;;;-141.84;77.24;20635.00;5025223;28;20283;-65
2023/10/03 00:13:09;;;;;;;13.77;9.57;;;16.30;99.90;;;-141.84;77.39;20612.63;5043854;28;20236;-64
2023/10/03 00:15:43;;;;;;;16.13;10.10;;;16.20;99.90;;;-141.84;77.28;20614.66;5043456;28;20320;-66
2023/10/03 00:18:11;;;;;;;17.90;10.30;;;16.20;99.90;;;-141.84;77.15;20630.94;5034802;28;20224;-65
2023/10/03 00:20:39;;;;;;;16.00;9.48;;;16.20;99.90;;;-141.84;76.95;20598.41;5043448;28;20236;-65
2023/10/03 00:23:08;;;;;;;15.77;9.77;;;16.20;99.90;;;-141.84;76.95;20590.28;5043834;28;20255;-65
2023/10/03 00:25:38;;;;;;;17.52;9.68;;;16.20;99.90;;;-141.84;77.33;20608.56;5042875;28;20225;-65
2023/10/03 00:28:10;;;;;;;15.13;9.13;;;16.20;99.90;;;-141.84;77.48;20606.53;5035669;28;20275;-65
2023/10/03 00:30:39;;;;;;;15.77;10.80;;;16.20;99.90;;;-141.84;76.97;20632.97;5042893;28;20753;-65
2023/10/03 00:33:12;;;;;;;15.65;10.30;;;16.20;99.90;;;-141.84;76.88;20606.53;5042929;28;20221;-64
2023/10/03 00:35:41;;;;;;;17.13;9.88;;;16.20;99.90;;;-141.84;77.12;20608.56;5042698;28;20209;-64
2023/10/03 00:38:13;;;;;;;16.90;10.00;;;16.20;99.90;;;-141.84;76.76;20635.00;5035838;28;20213;-64
2023/10/03 00:40:50;;;;;;;14.88;10.32;;;16.30;99.90;;;-141.84;76.26;20643.13;5042487;28;20241;-65
2023/10/03 00:43:20;;;;;;;15.05;9.60;;;16.30;99.90;;;-141.84;76.76;20606.53;5042575;28;20263;-65
2023/10/03 00:45:49;;;;;;;16.27;10.27;;;16.30;99.90;;;-141.84;76.46;20604.50;5042732;28;20266;-65
2023/10/03 00:48:18;;;;;;;16.02;10.45;;;16.30;99.90;;;-141.84;76.29;20606.53;5034687;28;20475;-64
2023/10/03 00:50:48;;;;;;;19.27;10.55;;;16.30;99.90;;;-141.84;76.38;20604.50;5041895;28;20559;-64
2023/10/03 00:53:17;;;;;;;19.27;10.75;;;16.30;99.90;;;-141.84;76.90;20622.81;5042769;28;20736;-64
2023/10/03 00:55:47;;;;;;;18.58;10.32;;;16.30;99.90;;;-141.84;76.68;20594.34;5042523;28;20229;-64
2023/10/03 00:58:28;;;;;;;15.25;9.65;;;16.20;99.90;;;-141.84;77.00;20588.25;5034575;28;20921;-64
2023/10/03 01:00:59;;;;;;;15.68;10.15;;;16.20;99.90;;;-141.84;77.28;20571.97;5042635;28;20229;-64
2023/10/03 01:03:31;;;;;;;16.17;10.60;;;16.10;99.90;;;-141.84;77.71;20565.88;5042534;28;20227;-65
2023/10/03 01:06:05;;;;;;;17.33;10.95;;;16.00;99.90;;;-141.84;78.13;20561.81;5035295;28;20659;-65
2023/10/03 01:08:36;;;;;;;15.90;10.23;;;16.10;99.90;;;-141.84;78.22;20606.53;5023465;28;20222;-65
2023/10/03 01:11:05;;;;;;;17.63;10.35;;;16.00;99.90;;;-141.84;78.06;20574.00;5032974;28;20326;-65
2023/10/03 01:13:34;;;;;;;15.45;10.38;;;16.00;99.90;;;-141.84;78.10;20549.63;5042409;28;20244;-65
2023/10/03 01:16:06;;;;;;;16.70;10.48;;;15.90;99.90;;;-141.84;78.36;20519.13;5014398;28;20236;-65
2023/10/03 01:18:37;;;;;;;14.27;10.15;;;15.90;99.90;;;-141.84;78.56;20531.31;5022658;28;20237;-65
2023/10/03 01:21:06;;;;;;;14.85;10.10;;;15.90;99.90;;;-141.84;77.85;20563.84;5022335;28;20599;-65
2023/10/03 01:23:37;;;;;;;16.23;10.25;;;15.80;99.90;;;-141.84;78.12;20523.19;5023191;28;20206;-65
2023/10/03 01:26:06;;;;;;;18.70;11.65;;;15.90;99.90;;;-141.84;78.38;20537.44;5030859;28;20704;-65
2023/10/03 01:28:36;;;;;;;16.92;10.70;;;15.80;99.90;;;-141.84;78.34;20533.34;5042447;28;20675;-64
2023/10/03 01:31:05;;;;;;;17.00;10.82;;;15.80;99.90;;;-141.84;78.66;20515.06;5040384;28;20320;-65
2023/10/03 01:33:35;;;;;;;16.85;10.40;;;15.80;99.90;;;-141.84;78.74;20527.25;5042157;28;20707;-61
2023/10/03 01:36:03;;;;;;;17.13;10.63;;;15.80;99.90;;;-141.84;78.91;20521.16;5034138;28;20609;-61
2023/10/03 01:38:31;;;;;;;18.75;10.88;;;15.80;99.90;;;-141.84;78.87;20519.13;5042433;28;20294;-61
2023/10/03 01:41:01;;;;;;;18.35;10.32;;;15.70;99.90;;;-141.84;79.14;20452.06;5041785;28;20229;-61
2023/10/03 01:43:29;;;;;;;16.95;10.38;;;15.80;99.90;;;-141.84;79.31;20490.66;5041529;28;20217;-60
2023/10/03 01:45:57;;;;;;;17.88;10.98;;;15.70;99.90;;;-141.84;79.42;20476.44;5039941;28;20248;-61
2023/10/03 01:48:26;;;;;;;17.67;10.57;;;15.60;99.90;;;-141.84;79.62;20486.59;5038621;28;20241;-61
2023/10/03 01:50:56;;;;;;;15.90;10.18;;;15.70;99.90;;;-141.84;79.82;20466.28;5041736;28;20699;-61
2023/10/03 01:53:25;;;;;;;17.83;11.13;;;15.60;99.90;;;-141.84;79.95;20456.13;5042921;28;20209;-61
2023/10/03 01:55:53;;;;;;;16.65;10.73;;;15.50;99.90;;;-141.84;79.93;20476.44;5045991;28;20595;-61
2023/10/03 01:58:24;;;;;;;19.00;10.60;;;15.50;99.90;;;-141.84;79.70;20482.53;5038030;28;20241;-61
2023/10/03 02:00:52;;;;;;;15.95;10.52;;;15.50;99.90;;;-141.84;80.18;20478.47;5045481;28;20237;-61
2023/10/03 02:03:22;;;;;;;16.38;10.52;;;15.50;99.90;;;-141.84;80.25;20484.56;5045469;28;20628;-61
2023/10/03 02:05:51;;;;;;;17.95;10.90;;;15.40;99.90;;;-141.84;79.80;20496.78;5045571;28;20217;-62
2023/10/03 02:08:20;;;;;;;15.48;10.00;;;15.50;99.90;;;-141.84;79.92;20490.66;5020505;28;20214;-62
2023/10/03 02:10:51;;;;;;;17.70;10.65;;;15.50;99.90;;;-141.84;79.70;20454.09;5033315;28;20268;-61
2023/10/03 02:13:22;;;;;;;18.20;10.75;;;15.40;99.90;;;-141.84;79.96;20515.06;5045521;28;20270;-61
2023/10/03 02:15:54;;;;;;;18.17;10.52;;;15.50;99.90;;;-141.84;79.98;20464.25;5044905;28;20233;-61
2023/10/03 02:18:24;;;;;;;19.48;10.25;;;15.50;99.90;;;-141.84;80.18;20447.97;5039874;28;20240;-61
2023/10/03 02:20:59;;;;;;;17.25;10.70;;;15.50;99.90;;;-141.84;80.02;20488.63;5045238;28;20225;-61
2023/10/03 02:23:29;;;;;;;20.63;11.13;;;15.50;99.90;;;-141.84;79.58;20460.19;5043972;28;20216;-60
2023/10/03 02:26:05;;;;;;;19.02;10.10;;;15.50;99.90;;;-141.84;79.71;20472.38;5043260;28;20229;-61
2023/10/03 02:28:36;;;;;;;16.15;10.52;;;15.40;99.90;;;-141.84;80.04;20450.03;5045031;28;20323;-61
2023/10/03 02:31:07;;;;;;;15.75;10.43;;;15.50;99.90;;;-141.84;80.15;20441.88;5045138;28;20738;-60
2023/10/03 02:33:38;;;;;;;16.30;10.45;;;15.50;99.90;;;-141.84;80.37;20447.97;5044885;28;20721;-61
2023/10/03 02:36:09;;;;;;;19.88;10.48;;;15.40;99.90;;;-141.84;80.52;20437.81;5036998;28;20256;-60
2023/10/03 02:38:38;;;;;;;17.23;10.32;;;15.40;99.90;;;-141.84;80.46;20419.53;5045520;28;20204;-60
2023/10/03 02:41:07;;;;;;;18.63;10.75;;;15.40;99.90;;;-141.84;80.16;20452.06;5045029;28;20319;-61
2023/10/03 02:43:42;;;;;;;15.52;10.43;;;15.40;99.90;;;-141.84;80.37;20439.84;5045031;28;20776;-60
2023/10/03 02:46:12;;;;;;;16.73;10.48;;;15.40;99.90;;;-141.84;80.43;20450.03;5036888;28;20719;-60
2023/10/03 02:48:44;;;;;;;17.42;11.30;;;15.40;99.90;;;-141.84;80.34;20466.28;5044937;28;20239;-60
2023/10/03 02:51:14;;;;;;;15.40;10.18;;;15.40;99.90;;;-141.84;80.29;20427.66;5044872;28;20312;-61
2023/10/03 02:53:43;;;;;;;18.92;11.40;;;15.40;99.90;;;-141.84;79.64;20413.44;5044765;28;20209;-61
2023/10/03 02:56:15;;;;;;;16.77;10.65;;;15.40;99.90;;;-141.84;79.56;20474.41;5036578;28;20343;-61
2023/10/03 02:58:45;;;;;;;20.17;11.40;;;15.50;99.90;;;-141.84;78.92;20472.38;5044680;28;20802;-61
2023/10/03 03:01:14;;;;;;;18.08;10.68;;;15.50;99.90;;;-141.84;79.17;20447.97;5044768;28;20233;-64
2023/10/03 03:03:42;;;;;;;19.52;11.07;;;15.50;99.90;;;-141.84;79.31;20476.44;5044156;28;20229;-66
2023/10/03 03:06:14;;;;;;;17.13;10.80;;;15.50;99.90;;;-141.84;79.23;20476.44;5036239;28;20233;-65
2023/10/03 03:08:44;;;;;;;19.20;10.63;;;15.50;99.90;;;-141.84;79.07;20464.25;5044574;28;20239;-65
2023/10/03 03:11:13;;;;;;;18.00;10.57;;;15.50;99.90;;;-141.84;79.47;20447.97;5044267;28;20240;-66
2023/10/03 03:13:41;;;;;;;16.98;10.60;;;15.50;99.90;;;-141.84;79.38;20470.34;5044058;28;20226;-64
2023/10/03 03:16:14;;;;;;;16.27;10.00;;;15.50;99.90;;;-141.84;79.10;20443.91;5036334;28;20229;-66
2023/10/03 03:18:46;;;;;;;15.73;9.98;;;15.50;99.90;;;-141.84;79.32;20462.22;5044112;28;20237;-65
2023/10/03 03:21:20;;;;;;;18.08;10.25;;;15.50;99.90;;;-141.84;79.55;20488.63;5044053;28;20282;-65
2023/10/03 03:23:56;;;;;;;16.92;10.95;;;15.50;99.90;;;-141.84;79.01;20464.25;5043996;28;20304;-65
2023/10/03 03:26:36;;;;;;;18.08;10.75;;;15.50;99.90;;;-141.84;78.95;20484.56;5044077;28;20231;-65
2023/10/03 03:29:20;;;;;;;23.25;11.23;;;15.60;99.90;;;-141.84;77.09;20523.19;5044468;28;20598;-65
2023/10/03 03:31:51;;;;;;;18.45;10.98;;;15.70;99.90;;;-141.84;77.90;20531.31;5043748;28;20287;-65
2023/10/03 03:34:20;;;;;;;16.48;11.15;;;15.70;99.90;;;-141.84;78.29;20494.75;5035269;28;20781;-67
2023/10/03 03:36:54;;;;;;;22.25;11.75;;;15.70;99.90;;;-141.84;78.15;20492.72;5044534;28;20236;-64
2023/10/03 03:39:26;;;;;;;17.23;10.35;;;15.70;99.90;;;-141.84;78.38;20492.72;5043754;28;20552;-65
2023/10/03 03:41:54;;;;;;;20.55;11.98;;;15.70;99.90;;;-141.84;78.18;20480.50;5043595;28;20696;-65
2023/10/03 03:44:25;;;;;;;19.20;10.88;;;15.70;99.90;;;-141.84;78.60;20472.38;5039894;28;20224;-65
2023/10/03 03:46:54;;;;;;;19.25;11.23;;;15.60;99.90;;;-141.84;78.78;20494.75;5043748;28;20651;-65
2023/10/03 03:49:24;;;;;;;20.50;12.05;;;15.60;99.90;;;-141.84;77.81;20535.41;5043950;28;20253;-65
2023/10/03 03:51:53;;;;;;;19.50;10.90;;;15.60;99.90;;;-141.84;77.04;20586.22;5043751;28;20248;-64
2023/10/03 03:54:22;;;;;;;19.67;11.50;;;15.70;99.90;;;-141.84;77.10;20551.66;5035933;28;20235;-66
2023/10/03 03:56:50;;;;;;;20.33;11.27;;;15.80;99.90;;;-141.84;77.04;20531.31;5042771;28;20954;-65
2023/10/03 03:59:19;;;;;;;19.92;11.25;;;15.80;99.90;;;-141.84;77.62;20484.56;5044381;28;20206;-65
2023/10/03 04:01:49;;;;;;;16.83;10.68;;;15.80;99.90;;;-141.84;77.92;20498.81;5043562;28;20700;-66
2023/10/03 04:04:19;;;;;;;19.67;11.23;;;15.80;99.90;;;-141.84;77.64;20521.16;5036084;28;20694;-65
2023/10/03 04:06:48;;;;;;;18.08;11.00;;;15.80;99.90;;;-141.84;76.99;20529.28;5044008;28;20237;-65
2023/10/03 04:09:16;;;;;;;20.10;11.90;;;15.90;99.90;;;-141.84;76.93;20525.22;5043361;28;20225;-65
2023/10/03 04:11:46;;;;;;;21.25;11.43;;;15.90;99.90;;;-141.84;76.88;20565.88;5042545;28;20751;-64
2023/10/03 04:14:15;;;;;;;18.48;11.30;;;16.00;99.90;;;-141.84;76.71;20578.09;5035360;28;20230;-65
2023/10/03 04:16:43;;;;;;;16.77;11.02;;;16.00;99.90;;;-141.84;76.54;20630.94;5042429;28;20275;-65
2023/10/03 04:19:13;;;;;;;20.92;11.68;;;16.10;99.90;;;-141.84;75.10;20663.47;5043059;28;20229;-65
2023/10/03 04:21:42;;;;;;;19.02;11.52;;;16.20;99.90;;;-141.84;74.90;20643.13;5042787;28;20236;-65
2023/10/03 04:24:14;;;;;;;19.23;11.38;;;16.30;99.90;;;-141.84;75.04;20635.00;5033180;28;20225;-65
2023/10/03 04:26:43;;;;;;;19.65;12.07;;;16.30;99.90;;;-141.84;75.35;20596.38;5042492;28;20271;-64
2023/10/03 04:29:13;;;;;;;19.55;11.27;;;16.40;99.90;;;-141.84;74.60;20665.50;5042782;28;20305;-65
2023/10/03 04:31:46;;;;;;;21.75;12.25;;;16.40;99.90;;;-141.84;74.38;20657.34;5043007;28;20277;-65
2023/10/03 04:34:20;;;;;;;18.77;11.63;;;16.40;99.90;;;-141.84;74.08;20655.31;5034915;28;20645;-64
2023/10/03 04:36:50;;;;;;;21.17;12.43;;;16.60;99.90;;;-141.84;74.40;20618.72;5043003;28;20621;-66
2023/10/03 04:39:20;;;;;;;22.08;12.27;;;16.50;99.90;;;-141.84;75.09;20645.16;5042796;28;20313;-65
2023/10/03 04:41:48;;;;;;;21.75;12.38;;;16.50;99.90;;;-141.84;73.20;20687.84;5042144;28;20320;-65
2023/10/03 04:44:17;;;;;;;20.70;12.23;;;16.60;99.90;;;-141.84;73.98;20685.81;5033772;28;20212;-65
2023/10/03 04:46:46;;;;;;;22.67;12.20;;;16.60;99.90;;;-141.84;74.08;20673.63;5043070;28;20244;-64
2023/10/03 04:49:15;;;;;;;19.88;11.77;;;16.60;99.90;;;-141.84;73.90;20665.50;5042729;28;20264;-65
2023/10/03 04:51:46;;;;;;;20.67;12.32;;;16.60;99.90;;;-141.84;73.23;20732.56;5042453;28;20249;-65
2023/10/03 04:54:17;;;;;;;18.80;11.38;;;16.70;99.90;;;-141.84;73.83;20683.78;5034905;28;20308;-66
2023/10/03 04:56:48;;;;;;;22.30;12.13;;;16.60;99.90;;;-141.84;73.36;20691.91;5041274;28;20213;-65
2023/10/03 04:59:19;;;;;;;19.92;11.82;;;16.70;99.90;;;-141.84;73.64;20720.38;5042919;28;20297;-65
2023/10/03 05:01:47;;;;;;;20.05;11.82;;;16.60;99.90;;;-141.84;74.06;20689.88;5042670;28;20707;-64
2023/10/03 05:04:16;;;;;;;20.98;12.35;;;16.70;99.90;;;-141.84;74.44;20671.59;5034980;28;20249;-64
2023/10/03 05:06:47;;;;;;;20.95;11.82;;;16.60;99.90;;;-141.84;74.13;20655.31;5041254;28;20696;-65
2023/10/03 05:09:17;;;;;;;20.08;11.70;;;16.70;99.90;;;-141.84;73.64;20726.47;5042270;28;20294;-66
2023/10/03 05:11:48;;;;;;;22.50;12.30;;;16.70;99.90;;;-141.84;74.14;20708.19;5028159;28;20237;-65
2023/10/03 05:14:18;;;;;;;21.35;11.95;;;16.70;99.90;;;-141.84;73.48;20716.31;5032981;28;20217;-65
2023/10/03 05:16:49;;;;;;;20.80;12.38;;;16.80;99.90;;;-141.84;73.64;20673.63;5042635;28;20712;-66
2023/10/03 05:19:17;;;;;;;20.80;12.32;;;16.80;99.90;;;-141.84;73.57;20716.31;5042518;28;20256;-65
2023/10/03 05:21:45;;;;;;;20.38;11.45;;;16.80;99.90;;;-141.84;73.92;20683.78;5042260;28;20291;-64
2023/10/03 05:24:15;;;;;;;20.48;12.20;;;16.80;99.90;;;-141.84;73.80;20683.78;5034367;28;20237;-65
2023/10/03 05:26:45;;;;;;;20.73;11.70;;;16.80;99.90;;;-141.84;73.11;20736.63;5041916;28;20206;-65
2023/10/03 05:29:13;;;;;;;22.30;12.57;;;16.80;99.90;;;-141.84;73.27;20722.41;5046075;28;20657;-65
2023/10/03 05:31:41;;;;;;;20.63;12.25;;;16.90;99.90;;;-141.84;73.57;20712.25;5046326;28;20217;-66
2023/10/03 05:34:10;;;;;;;22.73;12.57;;;16.90;99.90;;;-141.84;73.43;20714.28;5038640;28;20225;-65
2023/10/03 05:36:38;;;;;;;23.20;13.63;;;16.90;99.90;;;-141.84;72.62;20773.22;5046451;28;20374;-65
2023/10/03 05:39:08;;;;;;;24.13;13.02;;;17.00;99.90;;;-141.84;72.21;20809.81;5046566;28;20232;-63
2023/10/03 05:41:36;;;;;;;21.50;12.05;;;17.10;99.90;;;-141.84;71.29;20844.38;5046292;28;20228;-64
2023/10/03 05:44:10;;;;;;;22.83;12.88;;;17.20;99.90;;;-141.84;69.93;20895.19;5038465;28;20233;-66
2023/10/03 05:46:38;;;;;;;22.48;12.82;;;17.40;99.90;;;-141.84;70.72;20862.69;5046406;28;20358;-66
2023/10/03 05:49:07;;;;;;;22.02;12.23;;;17.50;99.90;;;-141.84;70.99;20862.69;5046222;28;20225;-65
2023/10/03 05:51:35;;;;;;;23.92;12.13;;;17.50;99.90;;;-141.84;69.77;20913.50;5043269;28;20230;-65
2023/10/03 05:54:05;;;;;;;22.85;12.57;;;17.60;99.90;;;-141.84;70.19;20862.69;5018023;28;20249;-65
2023/10/03 05:56:34;;;;;;;21.63;13.05;;;17.60;99.90;;;-141.84;70.04;20941.97;5038727;28;20301;-65
2023/10/03 05:59:02;;;;;;;24.10;13.93;;;17.70;99.90;;;-141.84;69.83;20917.56;5045270;28;20746;-65
2023/10/03 06:01:32;;;;;;;20.40;12.43;;;17.70;99.90;;;-141.84;69.13;20990.75;5045905;28;20316;-65
2023/10/03 06:04:00;;;;;;;22.40;12.45;;;17.80;99.90;;;-141.84;68.62;20960.25;5037799;28;20237;-64
2023/10/03 06:06:32;;;;;;;22.45;12.55;;;17.90;99.90;;;-141.84;69.19;20952.13;5044923;28;20232;-65
2023/10/03 06:09:01;;;;;;;21.05;12.20;;;18.00;99.90;;;-141.84;69.03;21011.09;5025505;28;20245;-66
2023/10/03 06:11:30;;;;;;;23.15;13.80;;;18.00;99.90;;;-141.84;67.82;21039.53;5033161;28;20735;-66
2023/10/03 06:13:58;;;;;;;23.35;13.40;;;18.10;99.90;;;-141.84;67.75;21037.50;5027634;28;20217;-64
2023/10/03 06:16:28;;;;;;;24.50;13.85;;;18.20;99.90;;;-141.84;67.44;21076.13;5044826;28;20533;-65
2023/10/03 06:18:58;;;;;;;23.27;13.65;;;18.20;99.90;;;-141.84;66.74;21072.06;5045225;28;20720;-64
2023/10/03 06:21:26;;;;;;;25.30;13.25;;;18.30;99.90;;;-141.84;66.38;21082.25;5045545;28;20712;-63
2023/10/03 06:23:55;;;;;;;21.80;12.65;;;18.40;99.90;;;-141.84;66.76;21106.63;5043511;28;20310;-65
2023/10/03 06:26:24;;;;;;;22.77;13.25;;;18.40;99.90;;;-141.84;67.37;21049.72;5040796;28;20739;-64
2023/10/03 06:28:53;;;;;;;22.77;12.82;;;18.40;99.90;;;-141.84;66.85;21104.59;5045585;28;20260;-67
2023/10/03 06:31:22;;;;;;;22.50;12.95;;;18.50;99.90;;;-141.84;67.20;21065.97;5045019;28;20234;-67
2023/10/03 06:33:50;;;;;;;21.05;12.45;;;18.50;99.90;;;-141.84;67.47;21110.69;5043225;28;20229;-65
2023/10/03 06:36:21;;;;;;;22.63;13.75;;;18.50;99.90;;;-141.84;66.31;21122.91;5037172;28;20332;-65
2023/10/03 06:38:50;;;;;;;24.42;13.88;;;18.60;99.90;;;-141.84;66.75;21135.09;5045508;28;20205;-66
2023/10/03 06:41:20;;;;;;;21.77;12.02;;;18.60;99.90;;;-141.84;66.10;21126.97;5057283;28;20297;-66
2023/10/03 06:43:49;;;;;;;20.60;12.95;;;18.70;99.90;;;-141.84;65.42;21177.78;5064232;28;20868;-65
2023/10/03 06:46:17;;;;;;;23.05;13.80;;;18.70;99.90;;;-141.84;66.14;21177.78;5037155;28;20458;-66
2023/10/03 06:48:47;;;;;;;26.52;13.73;;;18.80;99.90;;;-141.84;65.98;21183.88;5044653;28;20327;-65
2023/10/03 06:51:16;;;;;;;21.63;12.88;;;18.80;99.90;;;-141.84;65.74;21169.66;5045168;28;20233;-64
2023/10/03 06:53:47;;;;;;;22.48;13.15;;;18.90;99.90;;;-141.84;65.88;21234.72;5044526;28;20206;-64
2023/10/03 06:56:16;;;;;;;24.60;14.15;;;19.00;99.90;;;-141.84;65.14;21259.13;5036074;28;20652;-65
2023/10/03 06:58:44;;;;;;;23.02;13.27;;;19.10;99.90;;;-141.84;65.04;21216.41;5041266;28;20308;-66
2023/10/03 07:01:12;;;;;;;19.85;12.40;;;19.20;99.90;;;-141.84;65.23;21232.69;5044067;28;20222;-65
2023/10/03 07:03:41;;;;;;;20.85;12.52;;;19.10;99.90;;;-141.84;65.36;21238.78;5043018;28;20661;-65
2023/10/03 07:06:10;;;;;;;18.92;12.10;;;19.20;99.90;;;-141.84;64.89;21269.28;5037686;28;20576;-66
2023/10/03 07:08:41;;;;;;;21.17;12.60;;;19.30;99.90;;;-141.84;64.99;21289.59;5046951;28;20225;-65
2023/10/03 07:11:16;;;;;;;22.80;13.13;;;19.30;99.90;;;-141.84;64.53;21285.53;5048478;28;20331;-66
2023/10/03 07:13:44;;;;;;;23.17;13.68;;;19.40;99.90;;;-141.84;64.08;21307.91;5045920;28;20228;-65
2023/10/03 07:16:12;;;;;;;21.05;12.45;;;19.40;99.90;;;-141.84;63.52;21346.53;5038473;28;20229;-65
2023/10/03 07:18:43;;;;;;;20.40;12.77;;;19.50;99.90;;;-141.84;63.39;21342.47;5045547;28;20269;-67
2023/10/03 07:21:15;;;;;;;21.90;13.13;;;19.60;99.90;;;-141.84;63.57;21391.28;5045590;28;20286;-66
2023/10/03 07:23:44;;;;;;;23.52;13.40;;;19.60;99.90;;;-141.84;63.42;21356.69;5040455;28;20209;-65
2023/10/03 07:26:14;;;;;;;22.10;13.05;;;19.70;99.90;;;-141.84;63.33;21403.47;5036193;28;20657;-65
2023/10/03 07:28:43;;;;;;;20.58;11.90;;;19.80;99.90;;;-141.84;62.62;21442.09;5042904;28;20221;-66
2023/10/03 07:31:13;;;;;;;24.35;13.45;;;19.80;99.90;;;-141.84;62.58;21433.97;5045644;28;20279;-66
2023/10/03 07:33:43;;;;;;;21.48;12.50;;;19.90;99.90;;;-141.84;62.59;21395.34;5045762;28;20661;-65
2023/10/03 07:36:13;;;;;;;23.55;13.70;;;19.90;99.90;;;-141.84;62.45;21440.06;5038038;28;20224;-64
2023/10/03 07:38:41;;;;;;;20.15;12.38;;;20.00;99.90;;;-141.84;62.26;21427.88;5045462;28;20259;-64
2023/10/03 07:41:10;;;;;;;19.95;12.20;;;20.00;99.90;;;-141.84;61.95;21452.25;5045409;28;20672;-65
2023/10/03 07:43:42;;;;;;;22.88;13.05;;;20.10;99.90;;;-141.84;60.01;21582.38;5045284;28;20237;-65
2023/10/03 07:46:13;;;;;;;23.30;13.00;;;20.20;99.90;;;-141.84;60.51;21543.75;5037840;28;20598;-66
2023/10/03 07:48:42;;;;;;;22.08;13.10;;;20.30;99.90;;;-141.84;61.08;21499.03;5044415;28;20388;-66
2023/10/03 07:51:16;;;;;;;21.75;12.75;;;20.30;99.90;;;-141.84;60.50;21480.72;5039156;28;20236;-65
2023/10/03 07:53:44;;;;;;;21.13;12.35;;;20.30;99.90;;;-141.84;61.03;21480.72;5039755;28;20608;-64
2023/10/03 07:56:25;;;;;;;19.60;12.90;;;20.30;99.90;;;-141.84;60.43;21539.69;5032693;28;20214;-65
2023/10/03 07:58:55;;;;;;;19.80;12.43;;;20.30;99.90;;;-141.84;60.20;21610.84;5041757;28;20324;-65
2023/10/03 08:01:25;;;;;;;21.35;13.07;;;20.40;99.90;;;-141.84;60.09;21580.34;5043089;28;20213;-65
2023/10/03 08:03:54;;;;;;;18.90;12.27;;;20.40;99.90;;;-141.84;59.93;21572.22;5043196;28;20233;-66
2023/10/03 08:06:25;;;;;;;22.35;13.30;;;20.50;99.90;;;-141.84;60.73;21541.72;5037695;28;20247;-64
2023/10/03 08:08:55;;;;;;;25.23;12.18;;;20.50;99.90;;;-141.84;60.15;21584.44;5042455;28;20229;-66
2023/10/03 08:11:29;;;;;;;20.35;12.48;;;20.60;99.90;;;-141.84;59.68;21596.63;5053252;28;20236;-66
2023/10/03 08:14:11;;;;;;;20.85;12.75;;;20.60;99.90;;;-141.84;59.93;21588.50;5042204;28;20270;-64
2023/10/03 08:16:40;;;;;;;22.00;12.93;;;20.70;99.90;;;-141.84;59.34;21665.75;5044948;28;20225;-65
2023/10/03 08:19:21;;;;;;;23.00;12.70;;;20.80;99.90;;;-141.84;59.67;21635.25;5044681;28;20695;-65
2023/10/03 08:21:50;;;;;;;24.05;13.40;;;21.00;99.90;;;-141.84;58.51;21757.25;5044809;28;20700;-65
2023/10/03 08:24:19;;;;;;;18.15;11.88;;;21.00;99.90;;;-141.84;59.10;21741.00;5037101;28;20260;-65
2023/10/03 08:26:50;;;;;;;19.30;12.20;;;21.10;99.90;;;-141.84;58.94;21741.00;5042970;28;20318;-65
2023/10/03 08:29:23;;;;;;;19.63;11.32;;;21.30;99.90;;;-141.84;58.54;21787.75;5043786;28;20205;-65
2023/10/03 08:31:57;;;;;;;18.95;11.95;;;21.40;99.90;;;-141.84;58.40;21810.13;5043650;28;20358;-64
2023/10/03 08:34:26;;;;;;;19.35;12.57;;;21.50;99.90;;;-141.84;58.09;21838.59;5039399;28;20220;-65
2023/10/03 08:36:58;;;;;;;19.48;11.75;;;21.70;99.90;;;-141.84;57.08;21869.09;5041897;28;20267;-64
2023/10/03 08:39:29;;;;;;;17.80;11.80;;;21.80;99.90;;;-141.84;58.02;21842.66;5035631;28;20583;-66
2023/10/03 08:42:12;;;;;;;20.55;12.20;;;21.80;99.90;;;-141.84;57.33;21867.06;5041685;28;20208;-66
2023/10/03 08:44:54;;;;;;;19.50;11.27;;;21.70;99.90;;;-141.84;57.50;21871.13;5041598;28;20224;-65
2023/10/03 08:47:51;;;;;;;21.08;11.32;;;21.70;99.90;;;-141.84;55.60;21926.03;5027475;28;20213;-65
2023/10/03 08:50:35;;;;;;;19.40;11.95;;;21.90;99.90;;;-141.84;56.89;21881.28;5022179;28;22375;-66
2023/10/03 08:55:50;;;;;;;17.98;10.32;;;21.90;99.90;;;-141.84;56.92;21899.59;5026826;28;20229;-65
2023/10/03 08:58:25;;;;;;;20.35;11.20;;;22.00;99.90;;;-141.84;56.60;21913.84;5034359;28;23434;-66
2023/10/03 09:00:59;;;;;;;22.13;11.20;;;22.00;99.90;;;-141.84;54.83;21915.88;5042277;28;20235;-67
2023/10/03 09:03:46;;;;;;;21.48;11.00;;;22.10;99.90;;;-141.84;55.26;21956.53;5041857;28;20295;-66
2023/10/03 09:06:20;;;;;;;18.23;10.52;;;22.10;99.90;;;-141.84;53.86;21995.16;5034259;28;20212;-65
2023/10/03 09:08:51;;;;;;;16.17;9.98;;;22.20;99.90;;;-141.84;54.75;21964.66;5041121;28;20235;-66
2023/10/03 09:11:20;;;;;;;17.00;10.15;;;22.20;99.90;;;-141.84;53.22;22005.34;5054671;28;20232;-65
2023/10/03 09:13:50;;;;;;;15.93;10.50;;;22.40;99.90;;;-141.84;52.94;22064.31;5060225;28;20278;-66
2023/10/03 09:16:20;;;;;;;14.85;9.55;;;22.50;99.90;;;-141.84;52.22;22092.78;5034485;28;20320;-65
2023/10/03 09:18:56;;;;;;;20.27;10.75;;;22.60;99.90;;;-141.84;52.44;22086.69;5041586;28;20283;-65
2023/10/03 09:21:27;;;;;;;18.10;9.73;;;22.70;99.90;;;-141.84;52.67;22107.00;5042279;28;20231;-64
2023/10/03 09:24:12;;;;;;;19.33;9.98;;;22.80;99.90;;;-141.84;51.57;22135.47;5040179;28;20221;-65
2023/10/03 09:26:45;;;;;;;16.90;9.98;;;22.80;99.90;;;-141.84;51.26;22200.56;5041574;28;20213;-64
2023/10/03 09:29:18;;;;;;;16.17;9.95;;;23.00;99.90;;;-141.84;51.31;22224.97;5042647;28;20295;-66
2023/10/03 09:31:50;;;;;;;18.83;9.93;;;23.10;99.90;;;-141.84;50.38;22261.56;5041797;28;20248;-65
2023/10/03 09:34:18;;;;;;;18.38;10.50;;;23.30;99.90;;;-141.84;49.61;22377.47;5034322;28;20719;-65
2023/10/03 09:36:48;;;;;;;14.70;9.85;;;23.50;99.90;;;-141.84;50.14;22412.06;5041624;28;20641;-65
2023/10/03 09:39:22;;;;;;;16.65;9.88;;;23.70;99.90;;;-141.84;49.27;22395.78;5042383;28;20251;-66
2023/10/03 09:41:55;;;;;;;16.67;9.25;;;23.80;99.90;;;-141.84;49.04;22420.19;5058074;28;20224;-66
2023/10/03 09:44:30;;;;;;;17.23;9.95;;;23.90;99.90;;;-141.84;49.42;22448.66;5038086;28;20231;-65
2023/10/03 09:47:04;;;;;;;14.40;9.70;;;24.00;99.90;;;-141.84;48.37;22489.34;5042138;28;20217;-66
2023/10/03 09:49:38;;;;;;;15.48;9.60;;;24.10;99.90;;;-141.84;48.31;22497.47;5042037;28;20225;-66
2023/10/03 09:52:09;;;;;;;15.23;9.68;;;24.20;99.90;;;-141.84;48.62;22513.75;5031640;28;20225;-66
2023/10/03 09:54:38;;;;;;;14.25;9.55;;;24.30;99.90;;;-141.84;48.16;22556.47;5041837;28;20221;-65
2023/10/03 09:57:16;;;;;;;20.70;9.70;;;24.30;99.90;;;-141.84;47.36;22584.94;5041221;28;20233;-67
2023/10/03 09:59:49;;;;;;;16.83;9.85;;;24.50;99.90;;;-141.84;47.61;22576.78;5042090;28;20243;-64
2023/10/03 10:02:30;;;;;;;16.55;10.13;;;24.50;99.90;;;-141.84;47.62;22637.81;5034429;28;20362;-66
2023/10/03 10:05:06;;;;;;;19.25;10.60;;;24.60;99.90;;;-141.84;47.41;22662.22;5041689;28;20736;-67
2023/10/03 10:07:43;;;;;;;16.00;9.82;;;24.70;99.90;;;-141.84;47.36;22706.97;5041674;28;20298;-66
2023/10/03 10:10:14;;;;;;;13.70;9.77;;;24.70;99.90;;;-141.84;47.54;22684.59;5036641;28;20232;-66
2023/10/03 10:13:12;;;;;;;14.95;10.02;;;24.70;99.90;;;-141.84;47.43;22643.91;5061538;28;20239;-67